sensor_id;sensor_type;location;lat;lon;timestamp;P1;durP1;ratioP1;P2;durP2;ratioP2
18789;SDS011;9523;42.650;23.386;2022-11-23T00:01:15;11.67;;;6.90;;
18789;SDS011;9523;42.650;23.386;2022-11-23T00:03:43;13.80;;;8.00;;
18789;SDS011;9523;42.650;23.386;2022-11-23T00:06:12;13.30;;;7.47;;
18789;SDS011;9523;42.650;23.386;2022-11-23T00:08:39;8.33;;;5.70;;
18789;SDS011;9523;42.650;23.386;2022-11-23T00:11:06;11.20;;;6.47;;
18789;SDS011;9523;42.650;23.386;2022-11-23T00:13:36;9.70;;;6.33;;
18789;SDS011;9523;42.650;23.386;2022-11-23T00:16:04;11.47;;;7.03;;
18789;SDS011;9523;42.650;23.386;2022-11-23T00:18:32;11.33;;;7.53;;
18789;SDS011;9523;42.650;23.386;2022-11-23T00:20:59;11.53;;;7.53;;
18789;SDS011;9523;42.650;23.386;2022-11-23T00:23:30;10.43;;;7.03;;
18789;SDS011;9523;42.650;23.386;2022-11-23T00:25:57;11.30;;;7.00;;
18789;SDS011;9523;42.650;23.386;2022-11-23T00:28:24;12.17;;;7.77;;
18789;SDS011;9523;42.650;23.386;2022-11-23T00:30:52;11.43;;;7.20;;
18789;SDS011;9523;42.650;23.386;2022-11-23T00:33:21;12.60;;;7.30;;
18789;SDS011;9523;42.650;23.386;2022-11-23T00:35:57;11.57;;;6.70;;
18789;SDS011;9523;42.650;23.386;2022-11-23T00:38:24;10.57;;;6.70;;
18789;SDS011;9523;42.650;23.386;2022-11-23T00:40:56;11.87;;;6.60;;
18789;SDS011;9523;42.650;23.386;2022-11-23T00:43:24;10.70;;;6.70;;
18789;SDS011;9523;42.650;23.386;2022-11-23T00:46:01;8.43;;;6.23;;
18789;SDS011;9523;42.650;23.386;2022-11-23T00:48:29;14.27;;;6.80;;
18789;SDS011;9523;42.650;23.386;2022-11-23T00:50:56;11.53;;;7.10;;
18789;SDS011;9523;42.650;23.386;2022-11-23T00:53:23;13.10;;;6.47;;
18789;SDS011;9523;42.650;23.386;2022-11-23T00:55:50;11.33;;;6.03;;
18789;SDS011;9523;42.650;23.386;2022-11-23T00:58:17;10.60;;;6.43;;
18789;SDS011;9523;42.650;23.386;2022-11-23T01:00:44;10.23;;;6.73;;
18789;SDS011;9523;42.650;23.386;2022-11-23T01:03:13;9.23;;;5.63;;
18789;SDS011;9523;42.650;23.386;2022-11-23T01:05:40;7.87;;;5.40;;
18789;SDS011;9523;42.650;23.386;2022-11-23T01:08:08;9.37;;;5.97;;
18789;SDS011;9523;42.650;23.386;2022-11-23T01:10:34;11.13;;;6.50;;
18789;SDS011;9523;42.650;23.386;2022-11-23T01:13:01;10.17;;;6.20;;
18789;SDS011;9523;42.650;23.386;2022-11-23T01:15:28;9.57;;;5.97;;
18789;SDS011;9523;42.650;23.386;2022-11-23T01:17:55;11.70;;;6.00;;
18789;SDS011;9523;42.650;23.386;2022-11-23T01:20:23;9.73;;;6.10;;
18789;SDS011;9523;42.650;23.386;2022-11-23T01:22:50;13.17;;;6.97;;
18789;SDS011;9523;42.650;23.386;2022-11-23T01:25:17;9.00;;;5.87;;
18789;SDS011;9523;42.650;23.386;2022-11-23T01:27:44;8.93;;;6.27;;
18789;SDS011;9523;42.650;23.386;2022-11-23T01:30:12;9.70;;;6.10;;
18789;SDS011;9523;42.650;23.386;2022-11-23T01:32:39;10.47;;;5.40;;
18789;SDS011;9523;42.650;23.386;2022-11-23T01:35:06;13.90;;;6.67;;
18789;SDS011;9523;42.650;23.386;2022-11-23T01:37:34;10.97;;;6.77;;
18789;SDS011;9523;42.650;23.386;2022-11-23T01:40:01;11.93;;;6.50;;
18789;SDS011;9523;42.650;23.386;2022-11-23T01:42:48;10.37;;;6.23;;
18789;SDS011;9523;42.650;23.386;2022-11-23T01:45:34;8.73;;;6.13;;
18789;SDS011;9523;42.650;23.386;2022-11-23T01:48:04;12.27;;;6.40;;
18789;SDS011;9523;42.650;23.386;2022-11-23T01:50:36;11.50;;;6.53;;
18789;SDS011;9523;42.650;23.386;2022-11-23T01:53:05;12.80;;;6.57;;
18789;SDS011;9523;42.650;23.386;2022-11-23T01:55:32;12.10;;;6.40;;
18789;SDS011;9523;42.650;23.386;2022-11-23T01:58:00;11.70;;;6.27;;
18789;SDS011;9523;42.650;23.386;2022-11-23T02:00:28;13.63;;;5.97;;
18789;SDS011;9523;42.650;23.386;2022-11-23T02:02:56;9.93;;;6.10;;
18789;SDS011;9523;42.650;23.386;2022-11-23T02:05:26;9.83;;;6.53;;
18789;SDS011;9523;42.650;23.386;2022-11-23T02:07:59;9.63;;;6.73;;
18789;SDS011;9523;42.650;23.386;2022-11-23T02:10:29;12.30;;;7.23;;
18789;SDS011;9523;42.650;23.386;2022-11-23T02:12:59;9.60;;;6.13;;
18789;SDS011;9523;42.650;23.386;2022-11-23T02:15:28;12.30;;;6.50;;
18789;SDS011;9523;42.650;23.386;2022-11-23T02:17:56;11.27;;;6.63;;
18789;SDS011;9523;42.650;23.386;2022-11-23T02:20:24;9.83;;;6.77;;
18789;SDS011;9523;42.650;23.386;2022-11-23T02:22:55;11.20;;;7.33;;
18789;SDS011;9523;42.650;23.386;2022-11-23T02:25:37;14.13;;;7.43;;
18789;SDS011;9523;42.650;23.386;2022-11-23T02:28:12;10.83;;;7.00;;
18789;SDS011;9523;42.650;23.386;2022-11-23T02:30:41;10.97;;;6.50;;
18789;SDS011;9523;42.650;23.386;2022-11-23T02:33:11;10.43;;;7.00;;
18789;SDS011;9523;42.650;23.386;2022-11-23T02:35:45;12.57;;;7.13;;
18789;SDS011;9523;42.650;23.386;2022-11-23T02:38:14;13.93;;;7.53;;
18789;SDS011;9523;42.650;23.386;2022-11-23T02:40:42;12.07;;;7.67;;
18789;SDS011;9523;42.650;23.386;2022-11-23T02:43:10;11.93;;;6.83;;
18789;SDS011;9523;42.650;23.386;2022-11-23T02:45:38;10.33;;;7.20;;
18789;SDS011;9523;42.650;23.386;2022-11-23T02:48:12;10.87;;;7.30;;
18789;SDS011;9523;42.650;23.386;2022-11-23T02:50:39;11.63;;;7.33;;
18789;SDS011;9523;42.650;23.386;2022-11-23T02:53:06;12.27;;;8.03;;
18789;SDS011;9523;42.650;23.386;2022-11-23T02:55:33;15.03;;;8.53;;
18789;SDS011;9523;42.650;23.386;2022-11-23T02:58:03;14.40;;;8.87;;
18789;SDS011;9523;42.650;23.386;2022-11-23T03:00:32;17.37;;;9.70;;
18789;SDS011;9523;42.650;23.386;2022-11-23T03:03:00;17.03;;;10.33;;
18789;SDS011;9523;42.650;23.386;2022-11-23T03:05:28;18.07;;;10.70;;
18789;SDS011;9523;42.650;23.386;2022-11-23T03:07:55;19.07;;;11.27;;
18789;SDS011;9523;42.650;23.386;2022-11-23T03:10:22;20.27;;;12.07;;
18789;SDS011;9523;42.650;23.386;2022-11-23T03:12:54;16.23;;;10.23;;
18789;SDS011;9523;42.650;23.386;2022-11-23T03:15:22;22.93;;;10.80;;
18789;SDS011;9523;42.650;23.386;2022-11-23T03:17:50;17.33;;;10.40;;
18789;SDS011;9523;42.650;23.386;2022-11-23T03:20:17;17.50;;;9.87;;
18789;SDS011;9523;42.650;23.386;2022-11-23T03:22:44;16.57;;;8.63;;
18789;SDS011;9523;42.650;23.386;2022-11-23T03:25:11;18.80;;;9.53;;
18789;SDS011;9523;42.650;23.386;2022-11-23T03:27:38;14.43;;;8.97;;
18789;SDS011;9523;42.650;23.386;2022-11-23T03:30:06;13.97;;;9.00;;
18789;SDS011;9523;42.650;23.386;2022-11-23T03:32:34;15.53;;;9.63;;
18789;SDS011;9523;42.650;23.386;2022-11-23T03:35:03;20.23;;;9.97;;
18789;SDS011;9523;42.650;23.386;2022-11-23T03:37:31;15.80;;;9.53;;
18789;SDS011;9523;42.650;23.386;2022-11-23T03:39:58;15.03;;;9.00;;
18789;SDS011;9523;42.650;23.386;2022-11-23T03:42:25;16.90;;;9.83;;
18789;SDS011;9523;42.650;23.386;2022-11-23T03:44:52;16.23;;;9.80;;
18789;SDS011;9523;42.650;23.386;2022-11-23T03:47:19;17.93;;;10.47;;
18789;SDS011;9523;42.650;23.386;2022-11-23T03:49:46;15.30;;;9.77;;
18789;SDS011;9523;42.650;23.386;2022-11-23T03:52:14;15.07;;;9.43;;
18789;SDS011;9523;42.650;23.386;2022-11-23T03:54:41;16.77;;;9.40;;
18789;SDS011;9523;42.650;23.386;2022-11-23T03:57:08;15.97;;;10.37;;
18789;SDS011;9523;42.650;23.386;2022-11-23T03:59:35;16.33;;;9.77;;
18789;SDS011;9523;42.650;23.386;2022-11-23T04:02:01;16.83;;;9.63;;
18789;SDS011;9523;42.650;23.386;2022-11-23T04:04:28;15.60;;;10.00;;
18789;SDS011;9523;42.650;23.386;2022-11-23T04:06:57;14.90;;;10.43;;
18789;SDS011;9523;42.650;23.386;2022-11-23T04:09:25;15.40;;;10.03;;
18789;SDS011;9523;42.650;23.386;2022-11-23T04:11:52;15.80;;;10.00;;
18789;SDS011;9523;42.650;23.386;2022-11-23T04:14:19;17.37;;;10.33;;
18789;SDS011;9523;42.650;23.386;2022-11-23T04:16:46;16.90;;;9.83;;
18789;SDS011;9523;42.650;23.386;2022-11-23T04:19:13;14.13;;;9.57;;
18789;SDS011;9523;42.650;23.386;2022-11-23T04:21:40;15.57;;;9.40;;
18789;SDS011;9523;42.650;23.386;2022-11-23T04:24:07;15.20;;;9.93;;
18789;SDS011;9523;42.650;23.386;2022-11-23T04:26:35;16.93;;;9.27;;
18789;SDS011;9523;42.650;23.386;2022-11-23T04:29:02;16.73;;;10.27;;
18789;SDS011;9523;42.650;23.386;2022-11-23T04:31:29;17.00;;;10.27;;
18789;SDS011;9523;42.650;23.386;2022-11-23T04:33:56;16.57;;;9.77;;
18789;SDS011;9523;42.650;23.386;2022-11-23T04:36:23;18.50;;;10.37;;
18789;SDS011;9523;42.650;23.386;2022-11-23T04:38:51;14.90;;;9.93;;
18789;SDS011;9523;42.650;23.386;2022-11-23T04:41:18;17.40;;;9.90;;
18789;SDS011;9523;42.650;23.386;2022-11-23T04:43:47;20.67;;;11.80;;
18789;SDS011;9523;42.650;23.386;2022-11-23T04:46:15;20.07;;;12.20;;
18789;SDS011;9523;42.650;23.386;2022-11-23T04:48:42;23.10;;;12.50;;
18789;SDS011;9523;42.650;23.386;2022-11-23T04:51:09;19.70;;;12.80;;
18789;SDS011;9523;42.650;23.386;2022-11-23T04:53:36;19.47;;;13.00;;
18789;SDS011;9523;42.650;23.386;2022-11-23T04:56:03;19.20;;;11.83;;
18789;SDS011;9523;42.650;23.386;2022-11-23T04:58:30;20.37;;;12.30;;
18789;SDS011;9523;42.650;23.386;2022-11-23T05:00:59;20.47;;;12.60;;
18789;SDS011;9523;42.650;23.386;2022-11-23T05:03:26;17.40;;;11.03;;
18789;SDS011;9523;42.650;23.386;2022-11-23T05:05:53;19.90;;;11.70;;
18789;SDS011;9523;42.650;23.386;2022-11-23T05:08:23;18.13;;;12.13;;
18789;SDS011;9523;42.650;23.386;2022-11-23T05:10:49;22.03;;;12.23;;
18789;SDS011;9523;42.650;23.386;2022-11-23T05:13:16;20.40;;;12.13;;
18789;SDS011;9523;42.650;23.386;2022-11-23T05:15:44;19.17;;;11.83;;
18789;SDS011;9523;42.650;23.386;2022-11-23T05:18:12;17.40;;;12.27;;
18789;SDS011;9523;42.650;23.386;2022-11-23T05:20:39;20.90;;;11.73;;
18789;SDS011;9523;42.650;23.386;2022-11-23T05:23:06;19.43;;;11.50;;
18789;SDS011;9523;42.650;23.386;2022-11-23T05:25:33;19.73;;;12.23;;
18789;SDS011;9523;42.650;23.386;2022-11-23T05:28:00;21.13;;;12.73;;
18789;SDS011;9523;42.650;23.386;2022-11-23T05:30:26;19.97;;;12.83;;
18789;SDS011;9523;42.650;23.386;2022-11-23T05:32:53;18.53;;;12.40;;
18789;SDS011;9523;42.650;23.386;2022-11-23T05:35:27;23.40;;;12.20;;
18789;SDS011;9523;42.650;23.386;2022-11-23T05:37:54;19.87;;;11.77;;
18789;SDS011;9523;42.650;23.386;2022-11-23T05:40:21;16.43;;;11.97;;
18789;SDS011;9523;42.650;23.386;2022-11-23T05:42:48;18.53;;;12.13;;
18789;SDS011;9523;42.650;23.386;2022-11-23T05:45:19;21.23;;;13.40;;
18789;SDS011;9523;42.650;23.386;2022-11-23T05:47:48;20.33;;;12.70;;
18789;SDS011;9523;42.650;23.386;2022-11-23T05:50:15;21.60;;;13.30;;
18789;SDS011;9523;42.650;23.386;2022-11-23T05:52:44;21.37;;;14.73;;
18789;SDS011;9523;42.650;23.386;2022-11-23T05:55:11;23.37;;;13.87;;
18789;SDS011;9523;42.650;23.386;2022-11-23T05:57:40;22.73;;;14.13;;
18789;SDS011;9523;42.650;23.386;2022-11-23T06:00:08;23.33;;;14.83;;
18789;SDS011;9523;42.650;23.386;2022-11-23T06:02:35;21.10;;;14.67;;
18789;SDS011;9523;42.650;23.386;2022-11-23T06:05:03;24.40;;;14.83;;
18789;SDS011;9523;42.650;23.386;2022-11-23T06:07:31;27.23;;;16.23;;
18789;SDS011;9523;42.650;23.386;2022-11-23T06:09:59;26.10;;;16.23;;
18789;SDS011;9523;42.650;23.386;2022-11-23T06:12:27;34.60;;;17.57;;
18789;SDS011;9523;42.650;23.386;2022-11-23T06:14:54;25.97;;;15.73;;
18789;SDS011;9523;42.650;23.386;2022-11-23T06:17:21;26.07;;;16.00;;
18789;SDS011;9523;42.650;23.386;2022-11-23T06:19:48;21.80;;;13.73;;
18789;SDS011;9523;42.650;23.386;2022-11-23T06:22:15;28.83;;;16.73;;
18789;SDS011;9523;42.650;23.386;2022-11-23T06:24:42;25.60;;;17.00;;
18789;SDS011;9523;42.650;23.386;2022-11-23T06:27:10;25.20;;;15.80;;
18789;SDS011;9523;42.650;23.386;2022-11-23T06:29:40;27.07;;;16.20;;
18789;SDS011;9523;42.650;23.386;2022-11-23T06:32:07;29.17;;;16.63;;
18789;SDS011;9523;42.650;23.386;2022-11-23T06:34:34;29.90;;;16.73;;
18789;SDS011;9523;42.650;23.386;2022-11-23T06:37:01;25.60;;;16.70;;
18789;SDS011;9523;42.650;23.386;2022-11-23T06:39:28;24.20;;;15.87;;
18789;SDS011;9523;42.650;23.386;2022-11-23T06:41:54;28.47;;;15.83;;
18789;SDS011;9523;42.650;23.386;2022-11-23T06:44:26;23.30;;;15.37;;
18789;SDS011;9523;42.650;23.386;2022-11-23T06:46:53;24.47;;;15.03;;
18789;SDS011;9523;42.650;23.386;2022-11-23T06:49:19;24.73;;;15.43;;
18789;SDS011;9523;42.650;23.386;2022-11-23T06:51:46;24.57;;;16.23;;
18789;SDS011;9523;42.650;23.386;2022-11-23T06:54:13;29.83;;;18.40;;
18789;SDS011;9523;42.650;23.386;2022-11-23T06:56:40;27.83;;;17.33;;
18789;SDS011;9523;42.650;23.386;2022-11-23T06:59:07;26.53;;;17.00;;
18789;SDS011;9523;42.650;23.386;2022-11-23T07:01:35;26.60;;;16.10;;
18789;SDS011;9523;42.650;23.386;2022-11-23T07:04:02;27.43;;;16.17;;
18789;SDS011;9523;42.650;23.386;2022-11-23T07:06:28;25.57;;;16.07;;
18789;SDS011;9523;42.650;23.386;2022-11-23T07:08:59;24.03;;;15.33;;
18789;SDS011;9523;42.650;23.386;2022-11-23T07:11:26;20.60;;;14.07;;
18789;SDS011;9523;42.650;23.386;2022-11-23T07:13:56;20.00;;;13.63;;
18789;SDS011;9523;42.650;23.386;2022-11-23T07:16:22;19.93;;;13.50;;
18789;SDS011;9523;42.650;23.386;2022-11-23T07:18:53;20.67;;;13.93;;
18789;SDS011;9523;42.650;23.386;2022-11-23T07:21:20;17.23;;;12.53;;
18789;SDS011;9523;42.650;23.386;2022-11-23T07:23:47;18.97;;;13.47;;
18789;SDS011;9523;42.650;23.386;2022-11-23T07:26:14;21.27;;;13.20;;
18789;SDS011;9523;42.650;23.386;2022-11-23T07:28:41;20.17;;;13.77;;
18789;SDS011;9523;42.650;23.386;2022-11-23T07:31:08;18.77;;;13.70;;
18789;SDS011;9523;42.650;23.386;2022-11-23T07:33:34;26.33;;;16.50;;
18789;SDS011;9523;42.650;23.386;2022-11-23T07:36:03;21.23;;;13.80;;
18789;SDS011;9523;42.650;23.386;2022-11-23T07:38:30;21.60;;;13.70;;
18789;SDS011;9523;42.650;23.386;2022-11-23T07:40:57;23.07;;;14.77;;
18789;SDS011;9523;42.650;23.386;2022-11-23T07:43:25;19.30;;;14.03;;
18789;SDS011;9523;42.650;23.386;2022-11-23T07:45:53;22.80;;;13.87;;
18789;SDS011;9523;42.650;23.386;2022-11-23T07:48:21;19.83;;;14.13;;
18789;SDS011;9523;42.650;23.386;2022-11-23T07:50:50;18.30;;;13.23;;
18789;SDS011;9523;42.650;23.386;2022-11-23T07:53:19;24.63;;;15.20;;
18789;SDS011;9523;42.650;23.386;2022-11-23T07:55:46;23.10;;;14.30;;
18789;SDS011;9523;42.650;23.386;2022-11-23T07:58:12;22.53;;;15.37;;
18789;SDS011;9523;42.650;23.386;2022-11-23T08:00:39;23.70;;;14.83;;
18789;SDS011;9523;42.650;23.386;2022-11-23T08:03:08;22.57;;;15.10;;
18789;SDS011;9523;42.650;23.386;2022-11-23T08:05:38;22.93;;;16.00;;
18789;SDS011;9523;42.650;23.386;2022-11-23T08:08:05;25.27;;;15.87;;
18789;SDS011;9523;42.650;23.386;2022-11-23T08:10:33;22.73;;;14.93;;
18789;SDS011;9523;42.650;23.386;2022-11-23T08:13:01;19.87;;;14.20;;
18789;SDS011;9523;42.650;23.386;2022-11-23T08:15:31;21.47;;;15.30;;
18789;SDS011;9523;42.650;23.386;2022-11-23T08:17:59;22.33;;;15.17;;
18789;SDS011;9523;42.650;23.386;2022-11-23T08:20:27;23.03;;;15.37;;
18789;SDS011;9523;42.650;23.386;2022-11-23T08:22:55;21.30;;;15.27;;
18789;SDS011;9523;42.650;23.386;2022-11-23T08:25:22;23.33;;;15.30;;
18789;SDS011;9523;42.650;23.386;2022-11-23T08:27:54;24.73;;;16.47;;
18789;SDS011;9523;42.650;23.386;2022-11-23T08:30:21;27.40;;;17.10;;
18789;SDS011;9523;42.650;23.386;2022-11-23T08:32:48;23.77;;;17.07;;
18789;SDS011;9523;42.650;23.386;2022-11-23T08:35:15;26.97;;;17.13;;
18789;SDS011;9523;42.650;23.386;2022-11-23T08:37:41;27.30;;;18.37;;
18789;SDS011;9523;42.650;23.386;2022-11-23T08:40:09;26.23;;;16.37;;
18789;SDS011;9523;42.650;23.386;2022-11-23T08:42:36;30.23;;;19.13;;
18789;SDS011;9523;42.650;23.386;2022-11-23T08:45:05;26.03;;;17.57;;
18789;SDS011;9523;42.650;23.386;2022-11-23T08:47:34;24.30;;;17.87;;
18789;SDS011;9523;42.650;23.386;2022-11-23T08:50:01;28.43;;;17.37;;
18789;SDS011;9523;42.650;23.386;2022-11-23T08:52:28;26.60;;;17.60;;
18789;SDS011;9523;42.650;23.386;2022-11-23T08:54:55;23.57;;;16.67;;
18789;SDS011;9523;42.650;23.386;2022-11-23T08:57:25;26.27;;;17.13;;
18789;SDS011;9523;42.650;23.386;2022-11-23T08:59:53;26.40;;;16.57;;
18789;SDS011;9523;42.650;23.386;2022-11-23T09:02:21;25.47;;;16.57;;
18789;SDS011;9523;42.650;23.386;2022-11-23T09:04:47;22.87;;;16.00;;
18789;SDS011;9523;42.650;23.386;2022-11-23T09:07:14;29.43;;;18.40;;
18789;SDS011;9523;42.650;23.386;2022-11-23T09:09:41;24.03;;;16.97;;
18789;SDS011;9523;42.650;23.386;2022-11-23T09:12:08;23.17;;;16.30;;
18789;SDS011;9523;42.650;23.386;2022-11-23T09:14:35;21.07;;;14.73;;
18789;SDS011;9523;42.650;23.386;2022-11-23T09:17:02;18.07;;;12.67;;
18789;SDS011;9523;42.650;23.386;2022-11-23T09:19:30;16.87;;;12.33;;
18789;SDS011;9523;42.650;23.386;2022-11-23T09:21:57;16.87;;;13.13;;
18789;SDS011;9523;42.650;23.386;2022-11-23T09:24:24;17.23;;;11.73;;
18789;SDS011;9523;42.650;23.386;2022-11-23T09:26:52;16.53;;;11.83;;
18789;SDS011;9523;42.650;23.386;2022-11-23T09:29:19;14.13;;;11.03;;
18789;SDS011;9523;42.650;23.386;2022-11-23T09:31:45;15.50;;;11.03;;
18789;SDS011;9523;42.650;23.386;2022-11-23T09:34:12;13.60;;;11.10;;
18789;SDS011;9523;42.650;23.386;2022-11-23T09:36:40;17.27;;;10.80;;
18789;SDS011;9523;42.650;23.386;2022-11-23T09:39:07;28.75;;;11.65;;
18789;SDS011;9523;42.650;23.386;2022-11-23T09:44:43;14.77;;;10.18;;
18789;SDS011;9523;42.650;23.386;2022-11-23T09:47:24;11.93;;;9.63;;
18789;SDS011;9523;42.650;23.386;2022-11-23T09:50:07;13.43;;;10.13;;
18789;SDS011;9523;42.650;23.386;2022-11-23T09:52:43;13.63;;;9.40;;
18789;SDS011;9523;42.650;23.386;2022-11-23T09:55:14;16.23;;;9.63;;
18789;SDS011;9523;42.650;23.386;2022-11-23T09:57:44;10.63;;;8.15;;
18789;SDS011;9523;42.650;23.386;2022-11-23T10:00:15;13.07;;;8.48;;
18789;SDS011;9523;42.650;23.386;2022-11-23T10:02:45;8.98;;;7.75;;
18789;SDS011;9523;42.650;23.386;2022-11-23T10:05:15;15.73;;;7.90;;
18789;SDS011;9523;42.650;23.386;2022-11-23T10:07:48;11.80;;;6.57;;
18789;SDS011;9523;42.650;23.386;2022-11-23T10:10:32;7.13;;;6.10;;
18789;SDS011;9523;42.650;23.386;2022-11-23T10:13:10;10.27;;;6.88;;
18789;SDS011;9523;42.650;23.386;2022-11-23T10:16:17;8.07;;;6.00;;
18789;SDS011;9523;42.650;23.386;2022-11-23T10:19:02;7.68;;;5.53;;
18789;SDS011;9523;42.650;23.386;2022-11-23T10:21:38;28.67;;;18.98;;
18789;SDS011;9523;42.650;23.386;2022-11-23T10:24:17;9.45;;;7.20;;
18789;SDS011;9523;42.650;23.386;2022-11-23T10:26:45;6.67;;;4.97;;
18789;SDS011;9523;42.650;23.386;2022-11-23T10:29:16;4.90;;;3.67;;
18789;SDS011;9523;42.650;23.386;2022-11-23T10:31:50;31.70;;;4.50;;
18789;SDS011;9523;42.650;23.386;2022-11-23T10:34:19;9.23;;;3.40;;
18789;SDS011;9523;42.650;23.386;2022-11-23T10:36:52;5.13;;;3.60;;
18789;SDS011;9523;42.650;23.386;2022-11-23T10:39:25;9.13;;;4.60;;
18789;SDS011;9523;42.650;23.386;2022-11-23T10:41:53;5.80;;;3.70;;
18789;SDS011;9523;42.650;23.386;2022-11-23T10:44:28;6.73;;;3.83;;
18789;SDS011;9523;42.650;23.386;2022-11-23T10:46:56;5.77;;;3.83;;
18789;SDS011;9523;42.650;23.386;2022-11-23T10:49:25;8.20;;;5.00;;
18789;SDS011;9523;42.650;23.386;2022-11-23T10:51:54;5.03;;;4.03;;
18789;SDS011;9523;42.650;23.386;2022-11-23T10:54:26;7.73;;;4.70;;
18789;SDS011;9523;42.650;23.386;2022-11-23T10:56:55;7.37;;;4.67;;
18789;SDS011;9523;42.650;23.386;2022-11-23T10:59:27;9.67;;;5.97;;
18789;SDS011;9523;42.650;23.386;2022-11-23T11:02:00;12.00;;;7.30;;
18789;SDS011;9523;42.650;23.386;2022-11-23T11:04:30;10.83;;;6.77;;
18789;SDS011;9523;42.650;23.386;2022-11-23T11:07:09;11.17;;;8.27;;
18789;SDS011;9523;42.650;23.386;2022-11-23T11:09:48;11.40;;;7.50;;
18789;SDS011;9523;42.650;23.386;2022-11-23T11:12:16;10.47;;;7.53;;
18789;SDS011;9523;42.650;23.386;2022-11-23T11:14:53;11.70;;;7.27;;
18789;SDS011;9523;42.650;23.386;2022-11-23T11:17:25;13.87;;;7.30;;
18789;SDS011;9523;42.650;23.386;2022-11-23T11:19:53;8.97;;;6.53;;
18789;SDS011;9523;42.650;23.386;2022-11-23T11:22:24;66.50;;;42.30;;
18789;SDS011;9523;42.650;23.386;2022-11-23T11:24:55;12.17;;;8.57;;
18789;SDS011;9523;42.650;23.386;2022-11-23T11:27:22;11.13;;;6.30;;
18789;SDS011;9523;42.650;23.386;2022-11-23T11:29:50;8.43;;;6.00;;
18789;SDS011;9523;42.650;23.386;2022-11-23T11:32:21;7.80;;;5.43;;
18789;SDS011;9523;42.650;23.386;2022-11-23T11:34:57;7.23;;;4.53;;
18789;SDS011;9523;42.650;23.386;2022-11-23T11:37:29;9.43;;;4.60;;
18789;SDS011;9523;42.650;23.386;2022-11-23T11:40:07;6.20;;;3.80;;
18789;SDS011;9523;42.650;23.386;2022-11-23T11:42:42;6.40;;;4.13;;
18789;SDS011;9523;42.650;23.386;2022-11-23T11:45:14;5.07;;;2.67;;
18789;SDS011;9523;42.650;23.386;2022-11-23T11:47:46;2.97;;;1.80;;
18789;SDS011;9523;42.650;23.386;2022-11-23T11:50:20;5.10;;;2.57;;
18789;SDS011;9523;42.650;23.386;2022-11-23T11:52:50;5.97;;;3.40;;
18789;SDS011;9523;42.650;23.386;2022-11-23T11:55:24;20.30;;;10.77;;
18789;SDS011;9523;42.650;23.386;2022-11-23T11:57:58;5.77;;;3.00;;
18789;SDS011;9523;42.650;23.386;2022-11-23T12:00:29;3.53;;;2.57;;
18789;SDS011;9523;42.650;23.386;2022-11-23T12:03:02;5.03;;;2.20;;
18789;SDS011;9523;42.650;23.386;2022-11-23T12:05:37;3.23;;;2.10;;
18789;SDS011;9523;42.650;23.386;2022-11-23T12:08:09;3.63;;;2.17;;
18789;SDS011;9523;42.650;23.386;2022-11-23T12:10:42;9.03;;;2.50;;
18789;SDS011;9523;42.650;23.386;2022-11-23T12:13:14;2.20;;;1.77;;
18789;SDS011;9523;42.650;23.386;2022-11-23T12:15:43;2.13;;;1.70;;
18789;SDS011;9523;42.650;23.386;2022-11-23T12:21:10;93.03;;;54.92;;
18789;SDS011;9523;42.650;23.386;2022-11-23T12:23:49;42.42;;;22.17;;
18789;SDS011;9523;42.650;23.386;2022-11-23T12:26:28;12.90;;;6.75;;
18789;SDS011;9523;42.650;23.386;2022-11-23T12:29:07;3.15;;;1.58;;
18789;SDS011;9523;42.650;23.386;2022-11-23T12:31:49;4.63;;;2.63;;
18789;SDS011;9523;42.650;23.386;2022-11-23T12:34:27;2.53;;;1.30;;
18789;SDS011;9523;42.650;23.386;2022-11-23T12:37:10;2.90;;;1.52;;
18789;SDS011;9523;42.650;23.386;2022-11-23T12:39:55;3.00;;;1.40;;
18789;SDS011;9523;42.650;23.386;2022-11-23T12:42:39;5.75;;;2.95;;
18789;SDS011;9523;42.650;23.386;2022-11-23T12:45:16;3.15;;;1.58;;
18789;SDS011;9523;42.650;23.386;2022-11-23T12:47:52;1.83;;;1.17;;
18789;SDS011;9523;42.650;23.386;2022-11-23T12:50:26;9.48;;;4.82;;
18789;SDS011;9523;42.650;23.386;2022-11-23T12:53:06;19.33;;;13.13;;
18789;SDS011;9523;42.650;23.386;2022-11-23T12:55:49;4.10;;;2.03;;
18789;SDS011;9523;42.650;23.386;2022-11-23T12:58:24;2.65;;;1.20;;
18789;SDS011;9523;42.650;23.386;2022-11-23T13:00:53;1.33;;;0.95;;
18789;SDS011;9523;42.650;23.386;2022-11-23T13:09:34;1.00;;;0.70;;
18789;SDS011;9523;42.650;23.386;2022-11-23T13:12:15;0.70;;;0.52;;
18789;SDS011;9523;42.650;23.386;2022-11-23T13:15:14;1.70;;;0.90;;
18789;SDS011;9523;42.650;23.386;2022-11-23T13:17:56;3.30;;;0.80;;
18789;SDS011;9523;42.650;23.386;2022-11-23T13:20:40;2.95;;;1.00;;
18789;SDS011;9523;42.650;23.386;2022-11-23T13:23:25;1.50;;;1.00;;
18789;SDS011;9523;42.650;23.386;2022-11-23T13:28:40;1.63;;;0.75;;
18789;SDS011;9523;42.650;23.386;2022-11-23T13:33:53;5.07;;;0.95;;
18789;SDS011;9523;42.650;23.386;2022-11-23T13:36:34;1.05;;;0.80;;
18789;SDS011;9523;42.650;23.386;2022-11-23T13:42:21;2.73;;;0.80;;
18789;SDS011;9523;42.650;23.386;2022-11-23T13:48:04;2.57;;;1.40;;
18789;SDS011;9523;42.650;23.386;2022-11-23T13:50:39;2.13;;;1.20;;
18789;SDS011;9523;42.650;23.386;2022-11-23T13:53:21;2.23;;;1.00;;
18789;SDS011;9523;42.650;23.386;2022-11-23T13:55:51;2.60;;;0.80;;
18789;SDS011;9523;42.650;23.386;2022-11-23T13:58:38;1.30;;;0.80;;
18789;SDS011;9523;42.650;23.386;2022-11-23T14:01:06;1.53;;;1.00;;
18789;SDS011;9523;42.650;23.386;2022-11-23T14:03:51;1.67;;;1.00;;
18789;SDS011;9523;42.650;23.386;2022-11-23T14:06:24;6.10;;;1.10;;
18789;SDS011;9523;42.650;23.386;2022-11-23T14:09:00;1.73;;;1.10;;
18789;SDS011;9523;42.650;23.386;2022-11-23T14:11:33;2.30;;;0.97;;
18789;SDS011;9523;42.650;23.386;2022-11-23T14:14:04;1.33;;;0.90;;
18789;SDS011;9523;42.650;23.386;2022-11-23T14:16:53;2.83;;;1.10;;
18789;SDS011;9523;42.650;23.386;2022-11-23T14:19:56;5.40;;;2.53;;
18789;SDS011;9523;42.650;23.386;2022-11-23T14:22:44;3.17;;;1.23;;
18789;SDS011;9523;42.650;23.386;2022-11-23T14:25:31;3.67;;;1.63;;
18789;SDS011;9523;42.650;23.386;2022-11-23T14:28:06;1.40;;;1.03;;
18789;SDS011;9523;42.650;23.386;2022-11-23T14:30:50;1.63;;;1.20;;
18789;SDS011;9523;42.650;23.386;2022-11-23T14:33:33;2.57;;;1.40;;
18789;SDS011;9523;42.650;23.386;2022-11-23T14:36:11;0.80;;;0.80;;
18789;SDS011;9523;42.650;23.386;2022-11-23T14:41:52;1.50;;;0.97;;
18789;SDS011;9523;42.650;23.386;2022-11-23T14:44:25;1.77;;;1.10;;
18789;SDS011;9523;42.650;23.386;2022-11-23T14:47:00;1.67;;;0.87;;
18789;SDS011;9523;42.650;23.386;2022-11-23T14:49:27;1.17;;;0.87;;
18789;SDS011;9523;42.650;23.386;2022-11-23T14:51:56;2.27;;;1.17;;
18789;SDS011;9523;42.650;23.386;2022-11-23T14:54:23;1.87;;;1.13;;
18789;SDS011;9523;42.650;23.386;2022-11-23T14:56:51;3.20;;;1.03;;
18789;SDS011;9523;42.650;23.386;2022-11-23T14:59:23;1.83;;;1.10;;
18789;SDS011;9523;42.650;23.386;2022-11-23T15:01:54;1.53;;;1.10;;
18789;SDS011;9523;42.650;23.386;2022-11-23T15:04:23;3.93;;;1.13;;
18789;SDS011;9523;42.650;23.386;2022-11-23T15:06:54;6.03;;;1.80;;
18789;SDS011;9523;42.650;23.386;2022-11-23T15:09:31;2.80;;;1.00;;
18789;SDS011;9523;42.650;23.386;2022-11-23T15:12:07;2.40;;;1.40;;
18789;SDS011;9523;42.650;23.386;2022-11-23T15:14:46;1.90;;;1.30;;
18789;SDS011;9523;42.650;23.386;2022-11-23T15:17:15;11.70;;;1.60;;
18789;SDS011;9523;42.650;23.386;2022-11-23T15:19:46;7.70;;;2.07;;